createdAt,value
2022-10-09T00:01:22.972Z,11.82
2022-10-09T00:03:52.865Z,12.35
2022-10-09T00:06:22.630Z,12.18
2022-10-09T00:08:52.001Z,10.77
2022-10-09T00:11:22.678Z,8.85
2022-10-09T00:13:51.551Z,13.40
2022-10-09T00:16:22.618Z,11.88
2022-10-09T00:18:50.436Z,9.07
2022-10-09T00:21:21.004Z,7.65
2022-10-09T00:23:49.525Z,10.68
2022-10-09T00:26:18.420Z,9.02
2022-10-09T00:28:47.163Z,14.70
2022-10-09T00:31:15.430Z,11.70
2022-10-09T00:33:44.631Z,12.70
2022-10-09T00:36:14.421Z,10.50
2022-10-09T00:38:42.126Z,11.15
2022-10-09T00:41:11.586Z,14.52
2022-10-09T00:43:42.639Z,14.27
2022-10-09T00:46:20.824Z,13.57
2022-10-09T00:48:57.840Z,11.30
2022-10-09T00:51:25.896Z,9.70
2022-10-09T00:53:53.753Z,14.20
2022-10-09T00:56:21.771Z,15.55
2022-10-09T00:58:54.405Z,13.07
2022-10-09T01:01:25.020Z,13.02
2022-10-09T01:03:54.088Z,11.55
2022-10-09T01:06:31.038Z,14.98
2022-10-09T01:09:03.750Z,19.08
2022-10-09T01:11:39.732Z,17.85
2022-10-09T01:14:15.801Z,19.08
2022-10-09T01:16:51.389Z,12.38
2022-10-09T01:19:36.547Z,12.43
2022-10-09T01:22:15.074Z,14.23
2022-10-09T01:24:48.840Z,12.63
2022-10-09T01:27:21.954Z,10.68
2022-10-09T01:29:53.258Z,14.05
2022-10-09T01:32:24.430Z,9.68
2022-10-09T01:34:53.610Z,9.63
2022-10-09T01:37:23.834Z,17.85
2022-10-09T01:39:53.037Z,9.90
2022-10-09T01:42:24.060Z,11.52
2022-10-09T01:44:51.763Z,14.63
2022-10-09T01:47:21.420Z,14.98
2022-10-09T01:49:55.833Z,11.10
2022-10-09T01:52:41.011Z,11.93
2022-10-09T01:55:26.596Z,10.82
2022-10-09T01:58:01.346Z,11.90
2022-10-09T02:00:31.673Z,17.60
2022-10-09T02:02:59.915Z,11.90
2022-10-09T02:05:29.970Z,16.88
2022-10-09T02:07:58.805Z,11.30
2022-10-09T02:10:27.579Z,14.18
2022-10-09T02:12:59.058Z,9.73
2022-10-09T02:15:31.803Z,16.65
2022-10-09T02:18:06.861Z,14.68
2022-10-09T02:20:38.282Z,13.02
2022-10-09T02:23:08.535Z,13.18
2022-10-09T02:25:36.736Z,11.75
2022-10-09T02:28:06.715Z,14.35
2022-10-09T02:30:43.015Z,12.30
2022-10-09T02:33:10.786Z,6.95
2022-10-09T02:35:39.349Z,9.23
2022-10-09T02:38:06.979Z,9.40
2022-10-09T02:40:34.585Z,9.52
2022-10-09T02:43:02.243Z,11.63
2022-10-09T02:45:31.211Z,9.52
2022-10-09T02:47:58.864Z,11.57
2022-10-09T02:50:26.500Z,15.07
2022-10-09T02:52:54.114Z,10.88
2022-10-09T02:55:21.683Z,12.93
2022-10-09T02:57:49.386Z,8.70
2022-10-09T03:00:17.171Z,11.13
2022-10-09T03:02:46.395Z,10.23
2022-10-09T03:05:14.286Z,7.90
2022-10-09T03:07:42.572Z,8.30
2022-10-09T03:10:10.869Z,9.75
2022-10-09T03:12:38.467Z,11.15
2022-10-09T03:15:07.217Z,11.15
2022-10-09T03:17:34.883Z,10.57
2022-10-09T03:20:04.127Z,10.88
2022-10-09T03:22:31.912Z,12.20
2022-10-09T03:24:59.657Z,11.00
2022-10-09T03:27:27.363Z,12.93
2022-10-09T03:29:54.989Z,14.30
2022-10-09T03:32:22.690Z,13.57
2022-10-09T03:34:50.373Z,13.52
2022-10-09T03:37:19.523Z,13.90
2022-10-09T03:39:47.152Z,13.02
2022-10-09T03:42:14.819Z,12.68
2022-10-09T03:44:42.521Z,14.23
2022-10-09T03:47:10.319Z,12.55
2022-10-09T03:49:38.077Z,14.85
2022-10-09T03:52:05.797Z,14.02
2022-10-09T03:54:34.890Z,17.75
2022-10-09T03:57:02.695Z,18.77
2022-10-09T03:59:30.379Z,20.60
2022-10-09T04:01:58.097Z,16.45
2022-10-09T04:04:25.745Z,23.77
2022-10-09T04:06:53.455Z,18.42
2022-10-09T04:09:21.135Z,15.82
2022-10-09T04:11:50.646Z,16.55
2022-10-09T04:14:18.286Z,12.52
2022-10-09T04:16:46.020Z,12.27
2022-10-09T04:19:13.713Z,11.75
2022-10-09T04:21:41.361Z,12.75
2022-10-09T04:24:09.261Z,10.52
2022-10-09T04:26:37.174Z,14.13
2022-10-09T04:29:06.226Z,23.55
2022-10-09T04:31:34.134Z,13.43
2022-10-09T04:34:01.859Z,18.33
2022-10-09T04:36:29.526Z,23.25
2022-10-09T04:38:57.212Z,18.45
2022-10-09T04:41:24.967Z,16.17
2022-10-09T04:43:55.567Z,17.17
2022-10-09T04:46:24.953Z,25.95
2022-10-09T04:48:52.601Z,13.93
2022-10-09T04:51:20.380Z,15.77
2022-10-09T04:53:48.588Z,16.35
2022-10-09T04:56:18.107Z,15.90
2022-10-09T04:58:47.218Z,18.52
2022-10-09T05:01:17.968Z,14.35
2022-10-09T05:03:47.045Z,12.23
2022-10-09T05:06:15.521Z,12.38
2022-10-09T05:08:43.992Z,11.45
2022-10-09T05:11:14.266Z,13.30
2022-10-09T05:13:44.827Z,12.05
2022-10-09T05:16:14.789Z,11.20
2022-10-09T05:18:43.885Z,10.10
2022-10-09T05:21:13.121Z,12.43
2022-10-09T05:23:41.225Z,15.20
2022-10-09T05:26:12.644Z,15.20
2022-10-09T05:28:40.443Z,19.05
2022-10-09T05:31:09.515Z,16.83
2022-10-09T05:33:37.613Z,15.38
2022-10-09T05:36:06.415Z,16.42
2022-10-09T05:38:35.666Z,18.02
2022-10-09T05:41:06.202Z,16.42
2022-10-09T05:43:36.384Z,12.13
2022-10-09T05:46:09.331Z,15.25
2022-10-09T05:48:37.638Z,16.88
2022-10-09T05:51:14.187Z,20.15
2022-10-09T05:53:44.977Z,18.15
2022-10-09T05:56:14.258Z,16.42
2022-10-09T05:58:42.104Z,29.98
2022-10-09T06:01:10.030Z,27.45
2022-10-09T06:03:38.549Z,21.13
2022-10-09T06:06:07.703Z,19.67
2022-10-09T06:08:36.791Z,24.55
2022-10-09T06:11:13.862Z,30.33
2022-10-09T06:13:41.882Z,22.05
2022-10-09T06:16:11.482Z,18.35
2022-10-09T06:18:39.353Z,24.98
2022-10-09T06:21:07.489Z,29.63
2022-10-09T06:23:35.723Z,28.55
2022-10-09T06:26:05.303Z,26.60
2022-10-09T06:28:35.687Z,29.90
2022-10-09T06:31:04.310Z,27.90
2022-10-09T06:33:32.917Z,38.38
2022-10-09T06:36:09.738Z,29.83
2022-10-09T06:38:38.612Z,38.70
2022-10-09T06:41:08.427Z,30.65
2022-10-09T06:43:37.537Z,31.83
2022-10-09T06:46:07.927Z,32.58
2022-10-09T06:48:37.567Z,35.17
2022-10-09T06:51:08.412Z,25.15
2022-10-09T06:53:36.678Z,26.85
2022-10-09T06:56:05.061Z,27.65
2022-10-09T06:58:33.052Z,21.67
2022-10-09T07:01:07.517Z,21.13
2022-10-09T07:06:10.802Z,14.48
2022-10-09T07:08:39.448Z,16.38
2022-10-09T07:11:12.143Z,16.33
2022-10-09T07:13:40.465Z,13.50
2022-10-09T07:16:09.987Z,12.82
2022-10-09T07:18:38.441Z,10.73
2022-10-09T07:21:07.972Z,13.15
2022-10-09T07:23:36.705Z,12.27
2022-10-09T07:26:11.307Z,14.88
2022-10-09T07:28:39.596Z,13.50
2022-10-09T07:31:09.091Z,12.48
2022-10-09T07:33:37.178Z,12.55
2022-10-09T07:36:06.426Z,10.55
2022-10-09T07:38:34.459Z,11.50
2022-10-09T07:41:03.165Z,12.30
2022-10-09T07:43:32.068Z,11.98
2022-10-09T07:46:00.763Z,11.20
2022-10-09T07:48:29.908Z,7.93
2022-10-09T07:50:57.902Z,13.00
2022-10-09T07:53:25.644Z,10.30
2022-10-09T07:55:53.383Z,10.38
2022-10-09T07:58:21.141Z,13.57
2022-10-09T08:00:48.871Z,12.85
2022-10-09T08:03:16.584Z,8.90
2022-10-09T08:05:45.693Z,8.90
2022-10-09T08:08:13.410Z,12.30
2022-10-09T08:10:41.052Z,10.38
2022-10-09T08:13:08.862Z,7.97
2022-10-09T08:15:41.459Z,8.32
2022-10-09T08:18:09.252Z,9.70
2022-10-09T08:20:36.982Z,8.15
2022-10-09T08:23:06.577Z,7.55
2022-10-09T08:25:35.932Z,7.63
2022-10-09T08:28:04.105Z,8.23
2022-10-09T08:30:32.068Z,7.15
2022-10-09T08:32:59.806Z,8.65
2022-10-09T08:35:30.005Z,7.75
2022-10-09T08:38:01.514Z,9.07
2022-10-09T08:40:35.158Z,9.77
2022-10-09T08:43:06.107Z,7.70
2022-10-09T08:45:34.647Z,7.50
2022-10-09T08:48:05.468Z,6.85
2022-10-09T08:50:36.138Z,7.47
2022-10-09T08:53:09.339Z,7.00
2022-10-09T08:55:46.249Z,5.90
2022-10-09T08:58:17.200Z,6.38
2022-10-09T09:00:50.933Z,4.10
2022-10-09T09:03:45.609Z,5.60
2022-10-09T09:08:52.350Z,8.73
2022-10-09T09:11:32.552Z,6.53
2022-10-09T09:14:11.708Z,6.95
2022-10-09T09:16:45.869Z,6.47
2022-10-09T09:19:41.756Z,7.93
2022-10-09T09:22:12.712Z,6.65
2022-10-09T09:24:45.194Z,4.70
2022-10-09T09:27:19.201Z,6.20
2022-10-09T09:32:21.429Z,5.55
2022-10-09T09:34:49.337Z,5.20
2022-10-09T09:37:18.097Z,6.57
2022-10-09T09:42:35.039Z,4.55
2022-10-09T09:45:06.004Z,6.53
2022-10-09T09:47:37.215Z,5.55
2022-10-09T09:50:06.505Z,6.28
2022-10-09T09:52:40.678Z,6.13
2022-10-09T09:55:08.973Z,7.30
2022-10-09T09:57:44.273Z,5.15
2022-10-09T10:00:23.464Z,6.32
2022-10-09T10:02:51.855Z,5.63
2022-10-09T10:05:25.771Z,6.00
2022-10-09T10:07:54.050Z,5.85
2022-10-09T10:10:25.880Z,5.07
2022-10-09T10:12:58.365Z,4.63
2022-10-09T10:15:28.633Z,5.53
2022-10-09T10:18:00.186Z,5.05
2022-10-09T10:20:29.473Z,6.75
2022-10-09T10:22:59.896Z,4.22
2022-10-09T10:25:32.664Z,3.33
2022-10-09T10:28:06.891Z,2.95
2022-10-09T10:30:36.421Z,5.03
2022-10-09T10:33:12.329Z,3.55
2022-10-09T10:35:42.938Z,7.75
2022-10-09T10:38:14.896Z,4.32
2022-10-09T10:40:47.919Z,7.50
2022-10-09T10:43:30.839Z,6.55
2022-10-09T10:46:03.547Z,3.25
2022-10-09T10:48:34.865Z,5.88
2022-10-09T10:51:18.038Z,3.60
2022-10-09T10:54:02.462Z,4.15
2022-10-09T10:56:33.875Z,3.80
2022-10-09T10:59:21.520Z,6.30
2022-10-09T11:01:55.815Z,4.50
2022-10-09T11:04:37.768Z,3.03
2022-10-09T11:07:13.708Z,4.15
2022-10-09T11:09:52.488Z,3.33
2022-10-09T11:12:46.712Z,3.00
2022-10-09T11:15:25.776Z,3.97
2022-10-09T11:18:00.120Z,2.80
2022-10-09T11:20:55.276Z,3.00
2022-10-09T11:23:30.754Z,5.50
2022-10-09T11:26:05.283Z,2.75
2022-10-09T11:28:39.619Z,2.67
2022-10-09T11:31:14.641Z,2.30
2022-10-09T11:33:46.571Z,2.75
2022-10-09T11:36:19.477Z,5.00
2022-10-09T11:38:52.731Z,4.00
2022-10-09T11:41:21.181Z,3.78
2022-10-09T11:44:00.369Z,3.13
2022-10-09T11:46:40.516Z,2.28
2022-10-09T11:49:18.306Z,3.28
2022-10-09T11:51:51.497Z,3.55
2022-10-09T11:54:22.451Z,2.80
2022-10-09T11:56:55.702Z,2.17
2022-10-09T11:59:25.982Z,1.38
2022-10-09T12:01:55.227Z,2.53
2022-10-09T12:04:43.596Z,3.13
2022-10-09T12:07:25.948Z,2.50
2022-10-09T12:09:59.836Z,3.95
2022-10-09T12:14:55.470Z,2.20
2022-10-09T12:17:35.605Z,3.47
2022-10-09T12:20:08.491Z,4.53
2022-10-09T12:22:41.455Z,3.17
2022-10-09T12:25:18.341Z,3.92
2022-10-09T12:27:47.245Z,1.85
2022-10-09T12:30:24.513Z,2.53
2022-10-09T12:32:59.710Z,3.05
2022-10-09T12:35:36.631Z,2.25
2022-10-09T12:38:16.769Z,5.22
2022-10-09T12:40:48.794Z,3.63
2022-10-09T12:43:19.202Z,3.38
2022-10-09T12:45:49.875Z,2.88
2022-10-09T12:48:22.192Z,3.08
2022-10-09T12:50:50.419Z,3.20
2022-10-09T12:53:19.879Z,3.22
2022-10-09T12:55:50.324Z,5.28
2022-10-09T12:58:21.383Z,4.05
2022-10-09T13:00:51.998Z,2.45
2022-10-09T13:03:24.785Z,2.35
2022-10-09T13:05:53.246Z,2.85
2022-10-09T13:08:26.925Z,3.90
2022-10-09T13:10:55.433Z,4.72
2022-10-09T13:13:27.083Z,3.38
2022-10-09T13:16:02.219Z,2.70
2022-10-09T13:18:31.345Z,3.55
2022-10-09T13:21:00.664Z,3.13
2022-10-09T13:23:33.123Z,4.93
2022-10-09T13:26:03.631Z,2.25
2022-10-09T13:28:31.696Z,3.92
2022-10-09T13:31:07.490Z,4.47
2022-10-09T13:33:36.662Z,2.47
2022-10-09T13:36:04.579Z,1.35
2022-10-09T13:38:34.926Z,3.00
2022-10-09T13:41:03.178Z,3.08
2022-10-09T13:43:33.370Z,2.92
2022-10-09T13:46:01.202Z,2.75
2022-10-09T13:48:31.158Z,6.20
2022-10-09T13:51:00.258Z,5.13
2022-10-09T13:53:28.491Z,4.60
2022-10-09T13:56:00.718Z,4.40
2022-10-09T13:58:29.565Z,2.17
2022-10-09T14:00:58.049Z,3.28
2022-10-09T14:03:25.852Z,4.15
2022-10-09T14:06:00.446Z,4.43
2022-10-09T14:08:28.290Z,3.25
2022-10-09T14:10:56.085Z,3.75
2022-10-09T14:13:23.752Z,2.38
2022-10-09T14:15:53.074Z,2.83
2022-10-09T14:18:21.152Z,2.63
2022-10-09T14:20:48.984Z,2.78
2022-10-09T14:23:18.037Z,3.00
2022-10-09T14:25:45.700Z,2.65
2022-10-09T14:28:13.436Z,4.13
2022-10-09T14:30:41.568Z,4.43
2022-10-09T14:33:09.397Z,4.38
2022-10-09T14:35:37.221Z,3.38
2022-10-09T14:38:04.957Z,2.20
2022-10-09T14:40:33.976Z,3.88
2022-10-09T14:43:01.683Z,2.80
2022-10-09T14:45:29.834Z,2.85
2022-10-09T14:47:57.961Z,4.30
2022-10-09T14:50:25.649Z,3.90
2022-10-09T14:52:53.314Z,2.95
2022-10-09T14:55:20.995Z,3.38
2022-10-09T14:57:50.074Z,4.45
2022-10-09T15:00:18.048Z,6.55
2022-10-09T15:02:45.862Z,3.17
2022-10-09T15:05:13.579Z,3.83
2022-10-09T15:07:41.852Z,3.78
2022-10-09T15:10:12.448Z,4.55
2022-10-09T15:12:40.914Z,2.60
2022-10-09T15:15:10.925Z,3.20
2022-10-09T15:17:38.808Z,3.97
2022-10-09T15:20:07.329Z,3.40
2022-10-09T15:22:35.078Z,3.80
2022-10-09T15:25:02.785Z,1.70
2022-10-09T15:27:30.651Z,2.72
2022-10-09T15:29:58.377Z,3.85
2022-10-09T15:32:27.415Z,2.20
2022-10-09T15:34:55.109Z,3.17
2022-10-09T15:37:22.784Z,4.97
2022-10-09T15:39:50.478Z,2.10
2022-10-09T15:42:18.159Z,1.85
2022-10-09T15:44:46.017Z,3.10
2022-10-09T15:47:19.718Z,2.65
2022-10-09T15:49:53.215Z,4.18
2022-10-09T15:52:21.177Z,8.00
2022-10-09T15:54:48.907Z,4.55
2022-10-09T15:57:16.709Z,3.20
2022-10-09T15:59:44.538Z,4.65
2022-10-09T16:02:12.265Z,2.72
2022-10-09T16:04:40.103Z,3.35
2022-10-09T16:07:09.170Z,2.50
2022-10-09T16:09:38.050Z,1.80
2022-10-09T16:12:05.787Z,4.55
2022-10-09T16:14:33.828Z,2.88
2022-10-09T16:17:06.552Z,3.95
2022-10-09T16:19:36.799Z,3.20
2022-10-09T16:22:05.138Z,4.53
2022-10-09T16:24:34.187Z,4.75
2022-10-09T16:27:01.832Z,2.85
2022-10-09T16:29:30.849Z,2.90
2022-10-09T16:31:58.583Z,3.50
2022-10-09T16:34:26.423Z,1.88
2022-10-09T16:36:54.112Z,3.30
2022-10-09T16:39:23.584Z,3.33
2022-10-09T16:41:52.730Z,3.97
2022-10-09T16:44:20.457Z,6.43
2022-10-09T16:46:51.043Z,4.38
2022-10-09T16:49:21.437Z,2.70
2022-10-09T16:51:52.135Z,4.03
2022-10-09T16:54:19.967Z,5.45
2022-10-09T16:56:47.692Z,5.28
2022-10-09T16:59:16.783Z,4.45
2022-10-09T17:01:46.381Z,3.70
2022-10-09T17:04:14.772Z,3.10
2022-10-09T17:06:43.743Z,4.00
2022-10-09T17:09:14.149Z,3.65
2022-10-09T17:11:43.332Z,4.75
2022-10-09T17:14:11.702Z,4.82
2022-10-09T17:16:42.814Z,4.15
2022-10-09T17:19:10.556Z,5.88
2022-10-09T17:21:38.297Z,3.95
2022-10-09T17:24:07.537Z,5.00
2022-10-09T17:26:36.150Z,6.00
2022-10-09T17:29:04.593Z,6.00
2022-10-09T17:31:32.657Z,4.32
2022-10-09T17:34:03.600Z,5.55
2022-10-09T17:36:33.534Z,4.53
2022-10-09T17:39:01.302Z,6.78
2022-10-09T17:41:29.660Z,6.65
2022-10-09T17:43:58.296Z,3.95
2022-10-09T17:46:27.805Z,7.03
2022-10-09T17:48:56.798Z,7.40
2022-10-09T17:51:28.674Z,6.53
2022-10-09T17:56:32.479Z,5.82
2022-10-09T17:59:01.061Z,8.10
2022-10-09T18:01:29.096Z,7.35
2022-10-09T18:04:00.347Z,5.13
2022-10-09T18:06:32.357Z,12.02
2022-10-09T18:09:00.410Z,5.38
2022-10-09T18:11:29.867Z,12.93
2022-10-09T18:13:57.863Z,9.07
2022-10-09T18:16:35.189Z,7.03
2022-10-09T18:19:04.521Z,5.78
2022-10-09T18:21:36.523Z,7.00
2022-10-09T18:24:04.749Z,6.93
2022-10-09T18:26:32.669Z,6.75
2022-10-09T18:29:01.155Z,9.18
2022-10-09T18:31:29.219Z,9.18
2022-10-09T18:33:58.651Z,5.60
2022-10-09T18:36:31.340Z,6.32
2022-10-09T18:39:03.550Z,6.60
2022-10-09T18:41:31.531Z,10.10
2022-10-09T18:44:00.978Z,7.05
2022-10-09T18:46:32.779Z,9.00
2022-10-09T18:49:00.919Z,11.27
2022-10-09T18:51:29.769Z,9.80
2022-10-09T18:54:06.628Z,8.07
2022-10-09T18:56:36.356Z,7.45
2022-10-09T18:59:07.960Z,7.90
2022-10-09T19:01:35.877Z,10.05
2022-10-09T19:04:04.328Z,11.05
2022-10-09T19:06:32.194Z,7.97
2022-10-09T19:09:00.795Z,9.07
2022-10-09T19:11:30.868Z,8.27
2022-10-09T19:14:00.391Z,9.55
2022-10-09T19:16:28.288Z,8.48
2022-10-09T19:18:56.482Z,9.02
2022-10-09T19:21:24.584Z,7.60
2022-10-09T19:23:54.007Z,6.80
2022-10-09T19:26:22.714Z,9.30
2022-10-09T19:28:51.914Z,11.15
2022-10-09T19:31:19.681Z,7.13
2022-10-09T19:33:47.359Z,7.13
2022-10-09T19:36:15.806Z,9.23
2022-10-09T19:38:43.641Z,8.55
2022-10-09T19:41:13.556Z,7.80
2022-10-09T19:43:41.302Z,10.65
2022-10-09T19:46:13.901Z,11.45
2022-10-09T19:48:41.795Z,11.93
2022-10-09T19:51:12.514Z,11.60
2022-10-09T19:53:40.400Z,12.57
2022-10-09T19:56:11.150Z,7.78
2022-10-09T19:58:40.765Z,11.32
2022-10-09T20:01:10.171Z,8.20
2022-10-09T20:03:38.217Z,9.35
2022-10-09T20:06:08.452Z,8.35
2022-10-09T20:08:36.472Z,12.55
2022-10-09T20:11:05.653Z,8.27
2022-10-09T20:13:34.175Z,11.18
2022-10-09T20:16:03.321Z,10.20
2022-10-09T20:18:32.593Z,10.73
2022-10-09T20:21:00.642Z,9.70
2022-10-09T20:23:28.339Z,8.85
2022-10-09T20:26:00.403Z,9.23
2022-10-09T20:28:28.206Z,11.75
2022-10-09T20:30:59.076Z,9.82
2022-10-09T20:33:27.432Z,8.55
2022-10-09T20:35:56.484Z,8.63
2022-10-09T20:38:25.893Z,8.98
2022-10-09T20:40:53.950Z,7.45
2022-10-09T20:43:21.689Z,12.82
2022-10-09T20:45:49.447Z,8.73
2022-10-09T20:48:17.527Z,10.55
2022-10-09T20:50:45.204Z,8.63
2022-10-09T20:53:14.293Z,8.70
2022-10-09T20:55:41.978Z,13.05
2022-10-09T20:58:09.679Z,7.88
2022-10-09T21:00:42.780Z,10.98
2022-10-09T21:03:12.589Z,9.40
2022-10-09T21:05:44.180Z,7.40
2022-10-09T21:08:12.005Z,8.27
2022-10-09T21:10:45.402Z,13.30
2022-10-09T21:13:13.781Z,8.85
2022-10-09T21:15:43.766Z,8.32
2022-10-09T21:18:11.894Z,10.70
2022-10-09T21:20:40.658Z,8.00
2022-10-09T21:23:09.739Z,7.10
2022-10-09T21:25:38.379Z,10.43
2022-10-09T21:28:07.438Z,7.25
2022-10-09T21:30:41.553Z,7.22
2022-10-09T21:33:10.095Z,9.20
2022-10-09T21:35:40.399Z,8.52
2022-10-09T21:38:12.106Z,9.18
2022-10-09T21:40:39.848Z,7.90
2022-10-09T21:43:09.024Z,6.57
2022-10-09T21:45:37.174Z,6.40
2022-10-09T21:48:05.248Z,7.57
2022-10-09T21:50:33.828Z,9.75
2022-10-09T21:53:01.577Z,9.85
2022-10-09T21:55:29.329Z,7.55
2022-10-09T21:57:56.993Z,7.78
2022-10-09T22:00:26.217Z,5.95
2022-10-09T22:02:53.979Z,9.73
2022-10-09T22:05:21.631Z,7.57
2022-10-09T22:07:49.342Z,11.23
2022-10-09T22:10:17.135Z,8.52
2022-10-09T22:12:44.850Z,11.50
2022-10-09T22:15:12.496Z,11.88
2022-10-09T22:17:41.524Z,10.88
2022-10-09T22:20:09.912Z,10.00
2022-10-09T22:22:37.653Z,10.98
2022-10-09T22:25:06.235Z,8.50
2022-10-09T22:27:33.915Z,7.57
2022-10-09T22:30:01.577Z,8.90
2022-10-09T22:32:29.283Z,9.43
2022-10-09T22:34:58.267Z,8.95
2022-10-09T22:37:25.953Z,7.90
2022-10-09T22:39:53.628Z,7.43
2022-10-09T22:42:21.484Z,7.32
2022-10-09T22:44:49.161Z,8.88
2022-10-09T22:47:16.816Z,10.50
2022-10-09T22:49:44.617Z,10.60
2022-10-09T22:52:13.664Z,8.98
2022-10-09T22:54:41.364Z,9.00
2022-10-09T22:57:09.058Z,8.95
2022-10-09T22:59:36.741Z,10.82
2022-10-09T23:02:04.625Z,11.23
2022-10-09T23:04:32.310Z,7.65
2022-10-09T23:07:01.060Z,9.70
2022-10-09T23:09:32.224Z,8.88
2022-10-09T23:12:00.894Z,9.65
2022-10-09T23:14:28.773Z,10.48
2022-10-09T23:16:56.463Z,12.95
2022-10-09T23:19:24.133Z,7.78
2022-10-09T23:21:51.792Z,9.85
2022-10-09T23:24:19.444Z,9.52
2022-10-09T23:26:52.082Z,8.35
2022-10-09T23:29:20.683Z,8.07
2022-10-09T23:31:50.040Z,8.13
2022-10-09T23:34:17.742Z,9.10
2022-10-09T23:36:45.438Z,8.15
2022-10-09T23:39:13.780Z,9.73
2022-10-09T23:41:41.487Z,10.68
2022-10-09T23:44:10.536Z,10.25
2022-10-09T23:46:38.467Z,7.80
2022-10-09T23:49:06.456Z,10.63
2022-10-09T23:51:34.244Z,8.57
2022-10-09T23:54:02.094Z,14.75
2022-10-09T23:56:32.222Z,9.07
2022-10-09T23:59:02.132Z,10.73
